sensor_id;sensor_type;location;lat;lon;timestamp;P1;durP1;ratioP1;P2;durP2;ratioP2
10643;SDS011;5370;50.132;8.626;2023-03-01T00:00:39;14.27;;;11.40;;
10643;SDS011;5370;50.132;8.626;2023-03-01T00:03:04;13.60;;;10.87;;
10643;SDS011;5370;50.132;8.626;2023-03-01T00:05:30;16.43;;;11.93;;
10643;SDS011;5370;50.132;8.626;2023-03-01T00:07:55;14.53;;;11.53;;
10643;SDS011;5370;50.132;8.626;2023-03-01T00:10:21;14.93;;;11.30;;
10643;SDS011;5370;50.132;8.626;2023-03-01T00:12:47;13.43;;;11.63;;
10643;SDS011;5370;50.132;8.626;2023-03-01T00:15:12;16.60;;;11.67;;
10643;SDS011;5370;50.132;8.626;2023-03-01T00:17:38;16.13;;;11.43;;
10643;SDS011;5370;50.132;8.626;2023-03-01T00:20:03;15.53;;;11.63;;
10643;SDS011;5370;50.132;8.626;2023-03-01T00:22:34;19.27;;;12.10;;
10643;SDS011;5370;50.132;8.626;2023-03-01T00:25:00;14.97;;;11.43;;
10643;SDS011;5370;50.132;8.626;2023-03-01T00:27:25;16.70;;;12.43;;
10643;SDS011;5370;50.132;8.626;2023-03-01T00:29:51;18.07;;;12.37;;
10643;SDS011;5370;50.132;8.626;2023-03-01T00:32:17;16.63;;;11.83;;
10643;SDS011;5370;50.132;8.626;2023-03-01T00:34:42;15.87;;;11.97;;
10643;SDS011;5370;50.132;8.626;2023-03-01T00:37:18;17.53;;;12.47;;
10643;SDS011;5370;50.132;8.626;2023-03-01T00:39:48;17.57;;;10.87;;
10643;SDS011;5370;50.132;8.626;2023-03-01T00:42:14;14.77;;;11.20;;
10643;SDS011;5370;50.132;8.626;2023-03-01T00:44:39;15.70;;;11.57;;
10643;SDS011;5370;50.132;8.626;2023-03-01T00:47:05;14.47;;;11.90;;
10643;SDS011;5370;50.132;8.626;2023-03-01T00:49:30;16.87;;;12.57;;
10643;SDS011;5370;50.132;8.626;2023-03-01T00:51:56;17.80;;;11.90;;
10643;SDS011;5370;50.132;8.626;2023-03-01T00:54:22;20.20;;;12.90;;
10643;SDS011;5370;50.132;8.626;2023-03-01T00:56:47;16.80;;;12.23;;
10643;SDS011;5370;50.132;8.626;2023-03-01T00:59:13;15.30;;;11.93;;
10643;SDS011;5370;50.132;8.626;2023-03-01T01:01:38;18.33;;;12.47;;
10643;SDS011;5370;50.132;8.626;2023-03-01T01:04:08;15.30;;;12.07;;
10643;SDS011;5370;50.132;8.626;2023-03-01T01:06:41;15.47;;;11.70;;
10643;SDS011;5370;50.132;8.626;2023-03-01T01:09:08;18.83;;;13.33;;
10643;SDS011;5370;50.132;8.626;2023-03-01T01:11:41;18.10;;;12.57;;
10643;SDS011;5370;50.132;8.626;2023-03-01T01:14:11;15.43;;;11.77;;
10643;SDS011;5370;50.132;8.626;2023-03-01T01:16:36;16.73;;;12.40;;
10643;SDS011;5370;50.132;8.626;2023-03-01T01:19:02;15.73;;;11.37;;
10643;SDS011;5370;50.132;8.626;2023-03-01T01:21:27;16.37;;;12.43;;
10643;SDS011;5370;50.132;8.626;2023-03-01T01:23:53;15.50;;;12.17;;
10643;SDS011;5370;50.132;8.626;2023-03-01T01:26:20;16.13;;;11.77;;
10643;SDS011;5370;50.132;8.626;2023-03-01T01:28:48;15.40;;;11.53;;
10643;SDS011;5370;50.132;8.626;2023-03-01T01:31:14;17.47;;;11.80;;
10643;SDS011;5370;50.132;8.626;2023-03-01T01:33:40;16.07;;;11.20;;
10643;SDS011;5370;50.132;8.626;2023-03-01T01:36:06;16.93;;;12.10;;
10643;SDS011;5370;50.132;8.626;2023-03-01T01:38:33;16.10;;;12.53;;
10643;SDS011;5370;50.132;8.626;2023-03-01T01:40:59;17.03;;;11.67;;
10643;SDS011;5370;50.132;8.626;2023-03-01T01:43:26;17.57;;;12.03;;
10643;SDS011;5370;50.132;8.626;2023-03-01T01:46:04;18.07;;;11.93;;
10643;SDS011;5370;50.132;8.626;2023-03-01T01:48:54;14.93;;;11.97;;
10643;SDS011;5370;50.132;8.626;2023-03-01T01:51:24;14.20;;;12.07;;
10643;SDS011;5370;50.132;8.626;2023-03-01T01:54:03;16.60;;;12.30;;
10643;SDS011;5370;50.132;8.626;2023-03-01T01:56:33;14.70;;;12.50;;
10643;SDS011;5370;50.132;8.626;2023-03-01T01:58:59;14.27;;;11.47;;
10643;SDS011;5370;50.132;8.626;2023-03-01T02:01:26;18.93;;;13.63;;
10643;SDS011;5370;50.132;8.626;2023-03-01T02:03:51;17.27;;;11.73;;
10643;SDS011;5370;50.132;8.626;2023-03-01T02:09:07;15.47;;;11.97;;
10643;SDS011;5370;50.132;8.626;2023-03-01T02:11:39;12.93;;;11.20;;
10643;SDS011;5370;50.132;8.626;2023-03-01T02:14:05;17.93;;;12.63;;
10643;SDS011;5370;50.132;8.626;2023-03-01T02:16:31;17.17;;;13.43;;
10643;SDS011;5370;50.132;8.626;2023-03-01T02:18:57;16.60;;;12.43;;
10643;SDS011;5370;50.132;8.626;2023-03-01T02:21:45;17.40;;;12.03;;
10643;SDS011;5370;50.132;8.626;2023-03-01T02:30:27;18.77;;;12.70;;
10643;SDS011;5370;50.132;8.626;2023-03-01T02:32:54;18.73;;;13.07;;
10643;SDS011;5370;50.132;8.626;2023-03-01T02:35:27;15.77;;;12.87;;
10643;SDS011;5370;50.132;8.626;2023-03-01T02:37:59;18.13;;;12.57;;
10643;SDS011;5370;50.132;8.626;2023-03-01T02:40:27;18.33;;;13.03;;
10643;SDS011;5370;50.132;8.626;2023-03-01T02:42:56;18.37;;;12.80;;
10643;SDS011;5370;50.132;8.626;2023-03-01T02:45:24;17.67;;;13.57;;
10643;SDS011;5370;50.132;8.626;2023-03-01T02:47:52;15.43;;;12.67;;
10643;SDS011;5370;50.132;8.626;2023-03-01T02:50:25;17.60;;;13.43;;
10643;SDS011;5370;50.132;8.626;2023-03-01T02:56:00;19.20;;;14.23;;
10643;SDS011;5370;50.132;8.626;2023-03-01T02:58:26;18.43;;;12.93;;
10643;SDS011;5370;50.132;8.626;2023-03-01T03:00:52;15.10;;;12.07;;
10643;SDS011;5370;50.132;8.626;2023-03-01T03:03:19;14.97;;;12.50;;
10643;SDS011;5370;50.132;8.626;2023-03-01T03:05:45;18.43;;;12.40;;
10643;SDS011;5370;50.132;8.626;2023-03-01T03:08:11;19.10;;;12.30;;
10643;SDS011;5370;50.132;8.626;2023-03-01T03:10:38;15.87;;;11.90;;
10643;SDS011;5370;50.132;8.626;2023-03-01T03:13:10;20.10;;;13.30;;
10643;SDS011;5370;50.132;8.626;2023-03-01T03:15:37;14.93;;;10.90;;
10643;SDS011;5370;50.132;8.626;2023-03-01T03:18:04;20.37;;;13.77;;
10643;SDS011;5370;50.132;8.626;2023-03-01T03:20:32;20.40;;;12.97;;
10643;SDS011;5370;50.132;8.626;2023-03-01T03:22:58;17.33;;;12.53;;
10643;SDS011;5370;50.132;8.626;2023-03-01T03:25:25;18.73;;;13.70;;
10643;SDS011;5370;50.132;8.626;2023-03-01T03:27:52;18.23;;;13.00;;
10643;SDS011;5370;50.132;8.626;2023-03-01T03:30:21;18.53;;;11.43;;
10643;SDS011;5370;50.132;8.626;2023-03-01T03:32:48;18.13;;;12.33;;
10643;SDS011;5370;50.132;8.626;2023-03-01T03:35:17;18.53;;;12.07;;
10643;SDS011;5370;50.132;8.626;2023-03-01T03:37:49;20.67;;;13.70;;
10643;SDS011;5370;50.132;8.626;2023-03-01T03:43:01;18.57;;;13.43;;
10643;SDS011;5370;50.132;8.626;2023-03-01T03:45:27;18.80;;;14.13;;
10643;SDS011;5370;50.132;8.626;2023-03-01T03:47:53;15.77;;;12.60;;
10643;SDS011;5370;50.132;8.626;2023-03-01T03:50:18;19.93;;;13.33;;
10643;SDS011;5370;50.132;8.626;2023-03-01T03:52:44;17.03;;;13.13;;
10643;SDS011;5370;50.132;8.626;2023-03-01T03:55:10;18.37;;;12.93;;
10643;SDS011;5370;50.132;8.626;2023-03-01T03:57:40;16.83;;;12.27;;
10643;SDS011;5370;50.132;8.626;2023-03-01T04:00:07;20.07;;;14.33;;
10643;SDS011;5370;50.132;8.626;2023-03-01T04:02:40;19.33;;;13.13;;
10643;SDS011;5370;50.132;8.626;2023-03-01T04:05:06;19.23;;;10.73;;
10643;SDS011;5370;50.132;8.626;2023-03-01T04:07:34;19.10;;;14.50;;
10643;SDS011;5370;50.132;8.626;2023-03-01T04:10:02;20.40;;;14.50;;
10643;SDS011;5370;50.132;8.626;2023-03-01T04:12:28;16.60;;;12.63;;
10643;SDS011;5370;50.132;8.626;2023-03-01T04:14:54;21.40;;;12.40;;
10643;SDS011;5370;50.132;8.626;2023-03-01T04:17:19;20.20;;;13.97;;
10643;SDS011;5370;50.132;8.626;2023-03-01T04:19:45;16.90;;;13.83;;
10643;SDS011;5370;50.132;8.626;2023-03-01T04:22:13;18.67;;;11.90;;
10643;SDS011;5370;50.132;8.626;2023-03-01T04:24:42;19.33;;;13.03;;
10643;SDS011;5370;50.132;8.626;2023-03-01T04:27:08;22.97;;;14.73;;
10643;SDS011;5370;50.132;8.626;2023-03-01T04:29:34;23.07;;;13.77;;
10643;SDS011;5370;50.132;8.626;2023-03-01T04:31:59;18.60;;;13.77;;
10643;SDS011;5370;50.132;8.626;2023-03-01T04:34:25;20.30;;;13.87;;
10643;SDS011;5370;50.132;8.626;2023-03-01T04:36:53;18.80;;;12.70;;
10643;SDS011;5370;50.132;8.626;2023-03-01T04:39:19;21.70;;;15.27;;
10643;SDS011;5370;50.132;8.626;2023-03-01T04:41:44;19.20;;;14.00;;
10643;SDS011;5370;50.132;8.626;2023-03-01T04:44:10;19.73;;;14.97;;
10643;SDS011;5370;50.132;8.626;2023-03-01T04:46:36;20.47;;;13.40;;
10643;SDS011;5370;50.132;8.626;2023-03-01T04:49:02;21.00;;;14.07;;
10643;SDS011;5370;50.132;8.626;2023-03-01T04:51:28;18.33;;;13.33;;
10643;SDS011;5370;50.132;8.626;2023-03-01T04:53:54;20.20;;;13.80;;
10643;SDS011;5370;50.132;8.626;2023-03-01T04:56:20;22.80;;;13.87;;
10643;SDS011;5370;50.132;8.626;2023-03-01T04:58:47;20.03;;;10.67;;
10643;SDS011;5370;50.132;8.626;2023-03-01T05:01:15;20.43;;;13.60;;
10643;SDS011;5370;50.132;8.626;2023-03-01T05:03:43;18.40;;;13.03;;
10643;SDS011;5370;50.132;8.626;2023-03-01T05:06:13;20.60;;;14.53;;
10643;SDS011;5370;50.132;8.626;2023-03-01T05:08:39;17.43;;;13.37;;
10643;SDS011;5370;50.132;8.626;2023-03-01T05:11:06;20.37;;;14.17;;
10643;SDS011;5370;50.132;8.626;2023-03-01T05:13:33;20.97;;;13.87;;
10643;SDS011;5370;50.132;8.626;2023-03-01T05:16:00;20.27;;;14.53;;
10643;SDS011;5370;50.132;8.626;2023-03-01T05:18:28;19.67;;;14.80;;
10643;SDS011;5370;50.132;8.626;2023-03-01T05:20:55;17.97;;;11.93;;
10643;SDS011;5370;50.132;8.626;2023-03-01T05:23:28;21.93;;;14.47;;
10643;SDS011;5370;50.132;8.626;2023-03-01T05:25:57;22.37;;;14.40;;
10643;SDS011;5370;50.132;8.626;2023-03-01T05:28:24;21.37;;;14.47;;
10643;SDS011;5370;50.132;8.626;2023-03-01T05:30:50;20.57;;;15.30;;
10643;SDS011;5370;50.132;8.626;2023-03-01T05:33:16;21.43;;;14.60;;
10643;SDS011;5370;50.132;8.626;2023-03-01T05:35:43;19.67;;;12.30;;
10643;SDS011;5370;50.132;8.626;2023-03-01T05:38:10;18.83;;;13.23;;
10643;SDS011;5370;50.132;8.626;2023-03-01T05:40:40;20.10;;;11.37;;
10643;SDS011;5370;50.132;8.626;2023-03-01T05:43:07;18.47;;;12.23;;
10643;SDS011;5370;50.132;8.626;2023-03-01T05:45:33;22.93;;;14.30;;
10643;SDS011;5370;50.132;8.626;2023-03-01T05:48:01;22.00;;;15.43;;
10643;SDS011;5370;50.132;8.626;2023-03-01T05:50:28;16.13;;;10.77;;
10643;SDS011;5370;50.132;8.626;2023-03-01T05:52:58;18.87;;;13.53;;
10643;SDS011;5370;50.132;8.626;2023-03-01T05:55:30;23.77;;;14.07;;
10643;SDS011;5370;50.132;8.626;2023-03-01T05:58:00;18.93;;;13.47;;
10643;SDS011;5370;50.132;8.626;2023-03-01T06:00:27;18.80;;;11.97;;
10643;SDS011;5370;50.132;8.626;2023-03-01T06:02:55;20.87;;;11.80;;
10643;SDS011;5370;50.132;8.626;2023-03-01T06:05:21;23.90;;;13.53;;
10643;SDS011;5370;50.132;8.626;2023-03-01T06:07:47;16.60;;;11.53;;
10643;SDS011;5370;50.132;8.626;2023-03-01T06:10:13;20.77;;;14.50;;
10643;SDS011;5370;50.132;8.626;2023-03-01T06:12:40;27.73;;;15.33;;
10643;SDS011;5370;50.132;8.626;2023-03-01T06:15:07;20.17;;;13.40;;
10643;SDS011;5370;50.132;8.626;2023-03-01T06:17:35;18.87;;;12.50;;
10643;SDS011;5370;50.132;8.626;2023-03-01T06:20:03;20.67;;;13.40;;
10643;SDS011;5370;50.132;8.626;2023-03-01T06:22:30;21.77;;;13.77;;
10643;SDS011;5370;50.132;8.626;2023-03-01T06:24:55;28.63;;;16.63;;
10643;SDS011;5370;50.132;8.626;2023-03-01T06:27:21;20.13;;;12.77;;
10643;SDS011;5370;50.132;8.626;2023-03-01T06:29:46;18.00;;;12.03;;
10643;SDS011;5370;50.132;8.626;2023-03-01T06:32:12;22.00;;;14.43;;
10643;SDS011;5370;50.132;8.626;2023-03-01T06:34:37;19.17;;;12.13;;
10643;SDS011;5370;50.132;8.626;2023-03-01T06:37:03;20.93;;;13.83;;
10643;SDS011;5370;50.132;8.626;2023-03-01T06:39:30;31.03;;;10.90;;
10643;SDS011;5370;50.132;8.626;2023-03-01T06:41:56;23.03;;;13.73;;
10643;SDS011;5370;50.132;8.626;2023-03-01T06:44:21;15.93;;;9.93;;
10643;SDS011;5370;50.132;8.626;2023-03-01T06:46:47;16.83;;;11.50;;
10643;SDS011;5370;50.132;8.626;2023-03-01T06:49:12;18.70;;;12.67;;
10643;SDS011;5370;50.132;8.626;2023-03-01T06:51:38;18.03;;;13.47;;
10643;SDS011;5370;50.132;8.626;2023-03-01T06:54:04;19.20;;;13.20;;
10643;SDS011;5370;50.132;8.626;2023-03-01T06:56:30;18.50;;;11.43;;
10643;SDS011;5370;50.132;8.626;2023-03-01T06:58:56;24.57;;;13.03;;
10643;SDS011;5370;50.132;8.626;2023-03-01T07:01:21;22.90;;;14.73;;
10643;SDS011;5370;50.132;8.626;2023-03-01T07:03:47;21.27;;;12.93;;
10643;SDS011;5370;50.132;8.626;2023-03-01T07:06:12;23.40;;;13.43;;
10643;SDS011;5370;50.132;8.626;2023-03-01T07:08:38;21.00;;;14.60;;
10643;SDS011;5370;50.132;8.626;2023-03-01T07:11:03;21.10;;;13.80;;
10643;SDS011;5370;50.132;8.626;2023-03-01T07:13:30;20.40;;;13.40;;
10643;SDS011;5370;50.132;8.626;2023-03-01T07:15:56;20.13;;;13.50;;
10643;SDS011;5370;50.132;8.626;2023-03-01T07:18:22;20.83;;;13.53;;
10643;SDS011;5370;50.132;8.626;2023-03-01T07:20:47;20.70;;;13.23;;
10643;SDS011;5370;50.132;8.626;2023-03-01T07:23:13;17.73;;;13.03;;
10643;SDS011;5370;50.132;8.626;2023-03-01T07:25:38;22.07;;;12.70;;
10643;SDS011;5370;50.132;8.626;2023-03-01T07:28:04;20.57;;;12.37;;
10643;SDS011;5370;50.132;8.626;2023-03-01T07:30:30;21.67;;;12.27;;
10643;SDS011;5370;50.132;8.626;2023-03-01T07:32:56;18.60;;;13.23;;
10643;SDS011;5370;50.132;8.626;2023-03-01T07:35:22;18.40;;;13.03;;
10643;SDS011;5370;50.132;8.626;2023-03-01T07:37:49;25.57;;;15.20;;
10643;SDS011;5370;50.132;8.626;2023-03-01T07:40:15;18.03;;;12.07;;
10643;SDS011;5370;50.132;8.626;2023-03-01T07:42:40;19.27;;;13.57;;
10643;SDS011;5370;50.132;8.626;2023-03-01T07:45:06;19.70;;;13.30;;
10643;SDS011;5370;50.132;8.626;2023-03-01T07:47:32;21.93;;;11.73;;
10643;SDS011;5370;50.132;8.626;2023-03-01T07:49:58;11.23;;;8.23;;
10643;SDS011;5370;50.132;8.626;2023-03-01T07:52:23;22.87;;;14.77;;
10643;SDS011;5370;50.132;8.626;2023-03-01T07:54:49;20.47;;;12.43;;
10643;SDS011;5370;50.132;8.626;2023-03-01T07:57:15;22.17;;;14.77;;
10643;SDS011;5370;50.132;8.626;2023-03-01T07:59:40;20.17;;;13.83;;
10643;SDS011;5370;50.132;8.626;2023-03-01T08:02:06;18.83;;;11.03;;
10643;SDS011;5370;50.132;8.626;2023-03-01T08:04:32;17.83;;;12.50;;
10643;SDS011;5370;50.132;8.626;2023-03-01T08:06:58;24.47;;;14.47;;
10643;SDS011;5370;50.132;8.626;2023-03-01T08:09:24;20.37;;;13.53;;
10643;SDS011;5370;50.132;8.626;2023-03-01T08:11:50;24.30;;;15.37;;
10643;SDS011;5370;50.132;8.626;2023-03-01T08:14:15;20.77;;;13.73;;
10643;SDS011;5370;50.132;8.626;2023-03-01T08:16:41;18.27;;;13.00;;
10643;SDS011;5370;50.132;8.626;2023-03-01T08:19:07;25.23;;;14.00;;
10643;SDS011;5370;50.132;8.626;2023-03-01T08:21:34;19.37;;;13.60;;
10643;SDS011;5370;50.132;8.626;2023-03-01T08:24:00;18.43;;;13.07;;
10643;SDS011;5370;50.132;8.626;2023-03-01T08:26:26;17.13;;;11.67;;
10643;SDS011;5370;50.132;8.626;2023-03-01T08:28:52;15.90;;;10.47;;
10643;SDS011;5370;50.132;8.626;2023-03-01T08:31:19;15.00;;;10.97;;
10643;SDS011;5370;50.132;8.626;2023-03-01T08:33:46;19.60;;;13.20;;
10643;SDS011;5370;50.132;8.626;2023-03-01T08:36:20;17.47;;;12.23;;
10643;SDS011;5370;50.132;8.626;2023-03-01T08:38:53;15.60;;;10.33;;
10643;SDS011;5370;50.132;8.626;2023-03-01T08:41:19;8.17;;;7.27;;
10643;SDS011;5370;50.132;8.626;2023-03-01T08:43:45;17.67;;;10.97;;
10643;SDS011;5370;50.132;8.626;2023-03-01T08:46:11;16.43;;;11.83;;
10643;SDS011;5370;50.132;8.626;2023-03-01T08:48:37;20.60;;;12.00;;
10643;SDS011;5370;50.132;8.626;2023-03-01T08:51:07;14.37;;;11.20;;
10643;SDS011;5370;50.132;8.626;2023-03-01T08:53:33;16.67;;;9.83;;
10643;SDS011;5370;50.132;8.626;2023-03-01T08:55:59;17.80;;;11.60;;
10643;SDS011;5370;50.132;8.626;2023-03-01T08:58:27;19.07;;;12.83;;
10643;SDS011;5370;50.132;8.626;2023-03-01T09:00:53;17.40;;;10.33;;
10643;SDS011;5370;50.132;8.626;2023-03-01T09:03:18;17.37;;;12.27;;
10643;SDS011;5370;50.132;8.626;2023-03-01T09:05:44;18.27;;;12.17;;
10643;SDS011;5370;50.132;8.626;2023-03-01T09:08:10;14.07;;;9.43;;
10643;SDS011;5370;50.132;8.626;2023-03-01T09:10:39;14.00;;;7.73;;
10643;SDS011;5370;50.132;8.626;2023-03-01T09:13:05;18.00;;;10.17;;
10643;SDS011;5370;50.132;8.626;2023-03-01T09:15:30;16.83;;;11.30;;
10643;SDS011;5370;50.132;8.626;2023-03-01T09:17:56;17.80;;;11.20;;
10643;SDS011;5370;50.132;8.626;2023-03-01T09:20:21;11.20;;;8.07;;
10643;SDS011;5370;50.132;8.626;2023-03-01T09:22:47;18.77;;;11.63;;
10643;SDS011;5370;50.132;8.626;2023-03-01T09:25:12;14.53;;;10.10;;
10643;SDS011;5370;50.132;8.626;2023-03-01T09:27:38;15.10;;;11.13;;
10643;SDS011;5370;50.132;8.626;2023-03-01T09:30:03;13.87;;;8.47;;
10643;SDS011;5370;50.132;8.626;2023-03-01T09:32:30;12.63;;;8.07;;
10643;SDS011;5370;50.132;8.626;2023-03-01T09:34:56;18.30;;;10.40;;
10643;SDS011;5370;50.132;8.626;2023-03-01T09:37:31;18.80;;;11.53;;
10643;SDS011;5370;50.132;8.626;2023-03-01T09:39:58;15.77;;;10.27;;
10643;SDS011;5370;50.132;8.626;2023-03-01T09:42:23;13.63;;;7.87;;
10643;SDS011;5370;50.132;8.626;2023-03-01T09:44:51;15.63;;;10.47;;
10643;SDS011;5370;50.132;8.626;2023-03-01T09:47:40;16.47;;;12.40;;
10643;SDS011;5370;50.132;8.626;2023-03-01T09:50:13;16.63;;;11.13;;
10643;SDS011;5370;50.132;8.626;2023-03-01T09:52:43;16.10;;;10.80;;
10643;SDS011;5370;50.132;8.626;2023-03-01T09:55:14;21.67;;;12.17;;
10643;SDS011;5370;50.132;8.626;2023-03-01T09:57:53;14.00;;;8.90;;
10643;SDS011;5370;50.132;8.626;2023-03-01T10:13:57;18.63;;;11.30;;
10643;SDS011;5370;50.132;8.626;2023-03-01T10:16:38;18.83;;;12.77;;
10643;SDS011;5370;50.132;8.626;2023-03-01T10:19:27;19.60;;;12.10;;
10643;SDS011;5370;50.132;8.626;2023-03-01T10:22:15;17.60;;;12.23;;
10643;SDS011;5370;50.132;8.626;2023-03-01T10:24:43;13.43;;;9.43;;
10643;SDS011;5370;50.132;8.626;2023-03-01T10:27:17;16.33;;;11.53;;
10643;SDS011;5370;50.132;8.626;2023-03-01T10:32:41;19.97;;;13.40;;
10643;SDS011;5370;50.132;8.626;2023-03-01T10:35:15;14.07;;;10.43;;
10643;SDS011;5370;50.132;8.626;2023-03-01T10:40:32;22.37;;;12.73;;
10643;SDS011;5370;50.132;8.626;2023-03-01T10:42:59;14.30;;;9.33;;
10643;SDS011;5370;50.132;8.626;2023-03-01T10:45:37;13.20;;;10.13;;
10643;SDS011;5370;50.132;8.626;2023-03-01T10:48:17;16.07;;;12.33;;
10643;SDS011;5370;50.132;8.626;2023-03-01T10:50:49;12.03;;;8.63;;
10643;SDS011;5370;50.132;8.626;2023-03-01T10:53:36;18.53;;;11.17;;
10643;SDS011;5370;50.132;8.626;2023-03-01T10:56:13;10.70;;;8.20;;
10643;SDS011;5370;50.132;8.626;2023-03-01T10:58:41;18.07;;;10.73;;
10643;SDS011;5370;50.132;8.626;2023-03-01T11:01:26;21.37;;;10.53;;
10643;SDS011;5370;50.132;8.626;2023-03-01T11:06:34;19.30;;;10.37;;
10643;SDS011;5370;50.132;8.626;2023-03-01T11:09:19;17.53;;;11.17;;
10643;SDS011;5370;50.132;8.626;2023-03-01T11:11:51;13.33;;;8.70;;
10643;SDS011;5370;50.132;8.626;2023-03-01T11:14:30;13.27;;;9.23;;
10643;SDS011;5370;50.132;8.626;2023-03-01T11:17:01;13.90;;;9.27;;
10643;SDS011;5370;50.132;8.626;2023-03-01T11:19:40;8.67;;;7.33;;
10643;SDS011;5370;50.132;8.626;2023-03-01T11:22:07;15.53;;;10.70;;
10643;SDS011;5370;50.132;8.626;2023-03-01T11:24:45;9.23;;;7.33;;
10643;SDS011;5370;50.132;8.626;2023-03-01T11:27:15;9.27;;;6.57;;
10643;SDS011;5370;50.132;8.626;2023-03-01T11:29:45;14.50;;;11.07;;
10643;SDS011;5370;50.132;8.626;2023-03-01T11:35:36;15.60;;;11.63;;
10643;SDS011;5370;50.132;8.626;2023-03-01T11:38:14;10.33;;;7.77;;
10643;SDS011;5370;50.132;8.626;2023-03-01T11:46:24;13.70;;;10.10;;
10643;SDS011;5370;50.132;8.626;2023-03-01T12:00:22;15.83;;;8.80;;
10643;SDS011;5370;50.132;8.626;2023-03-01T12:05:51;11.83;;;8.23;;
10643;SDS011;5370;50.132;8.626;2023-03-01T12:23:26;11.97;;;6.97;;
10643;SDS011;5370;50.132;8.626;2023-03-01T12:26:08;15.17;;;8.87;;
10643;SDS011;5370;50.132;8.626;2023-03-01T12:39:38;7.30;;;5.67;;
10643;SDS011;5370;50.132;8.626;2023-03-01T12:48:09;10.30;;;7.87;;
10643;SDS011;5370;50.132;8.626;2023-03-01T12:50:46;7.30;;;5.50;;
10643;SDS011;5370;50.132;8.626;2023-03-01T12:53:34;9.83;;;6.63;;
10643;SDS011;5370;50.132;8.626;2023-03-01T12:56:05;9.63;;;6.40;;
10643;SDS011;5370;50.132;8.626;2023-03-01T12:58:36;9.20;;;5.93;;
10643;SDS011;5370;50.132;8.626;2023-03-01T13:01:30;8.47;;;6.40;;
10643;SDS011;5370;50.132;8.626;2023-03-01T13:11:55;12.70;;;7.90;;
10643;SDS011;5370;50.132;8.626;2023-03-01T13:16:48;14.03;;;8.23;;
10643;SDS011;5370;50.132;8.626;2023-03-01T13:19:24;12.00;;;7.10;;
10643;SDS011;5370;50.132;8.626;2023-03-01T13:21:52;9.57;;;6.80;;
10643;SDS011;5370;50.132;8.626;2023-03-01T13:32:34;10.50;;;7.20;;
10643;SDS011;5370;50.132;8.626;2023-03-01T13:37:42;9.03;;;7.83;;
10643;SDS011;5370;50.132;8.626;2023-03-01T13:42:42;8.30;;;5.70;;
10643;SDS011;5370;50.132;8.626;2023-03-01T13:45:18;12.20;;;7.73;;
10643;SDS011;5370;50.132;8.626;2023-03-01T13:48:02;11.73;;;7.80;;
10643;SDS011;5370;50.132;8.626;2023-03-01T13:50:35;12.67;;;7.80;;
10643;SDS011;5370;50.132;8.626;2023-03-01T13:53:10;12.67;;;6.57;;
10643;SDS011;5370;50.132;8.626;2023-03-01T13:55:42;11.47;;;6.60;;
10643;SDS011;5370;50.132;8.626;2023-03-01T13:58:29;9.33;;;6.83;;
10643;SDS011;5370;50.132;8.626;2023-03-01T14:00:58;11.93;;;7.73;;
10643;SDS011;5370;50.132;8.626;2023-03-01T14:03:26;11.87;;;6.93;;
10643;SDS011;5370;50.132;8.626;2023-03-01T14:05:59;8.40;;;5.83;;
10643;SDS011;5370;50.132;8.626;2023-03-01T14:08:28;11.47;;;7.40;;
10643;SDS011;5370;50.132;8.626;2023-03-01T14:11:13;8.80;;;6.03;;
10643;SDS011;5370;50.132;8.626;2023-03-01T14:17:22;9.30;;;6.07;;
10643;SDS011;5370;50.132;8.626;2023-03-01T14:19:54;14.33;;;6.93;;
10643;SDS011;5370;50.132;8.626;2023-03-01T14:22:28;11.17;;;6.00;;
10643;SDS011;5370;50.132;8.626;2023-03-01T14:24:58;8.13;;;6.07;;
10643;SDS011;5370;50.132;8.626;2023-03-01T14:27:28;11.03;;;7.50;;
10643;SDS011;5370;50.132;8.626;2023-03-01T14:30:10;11.03;;;7.90;;
10643;SDS011;5370;50.132;8.626;2023-03-01T14:35:27;13.83;;;8.37;;
10643;SDS011;5370;50.132;8.626;2023-03-01T14:37:57;14.47;;;7.00;;
10643;SDS011;5370;50.132;8.626;2023-03-01T14:40:27;11.37;;;7.40;;
10643;SDS011;5370;50.132;8.626;2023-03-01T14:42:55;10.57;;;7.27;;
10643;SDS011;5370;50.132;8.626;2023-03-01T14:45:23;11.87;;;8.17;;
10643;SDS011;5370;50.132;8.626;2023-03-01T14:47:51;14.60;;;7.87;;
10643;SDS011;5370;50.132;8.626;2023-03-01T14:52:59;10.40;;;6.73;;
10643;SDS011;5370;50.132;8.626;2023-03-01T14:55:29;10.63;;;8.07;;
10643;SDS011;5370;50.132;8.626;2023-03-01T14:58:02;11.17;;;7.70;;
10643;SDS011;5370;50.132;8.626;2023-03-01T15:00:30;9.93;;;6.97;;
10643;SDS011;5370;50.132;8.626;2023-03-01T15:02:59;11.40;;;6.77;;
10643;SDS011;5370;50.132;8.626;2023-03-01T15:05:34;11.50;;;7.40;;
10643;SDS011;5370;50.132;8.626;2023-03-01T15:08:01;7.20;;;6.07;;
10643;SDS011;5370;50.132;8.626;2023-03-01T15:10:29;9.33;;;6.47;;
10643;SDS011;5370;50.132;8.626;2023-03-01T15:13:09;10.20;;;6.20;;
10643;SDS011;5370;50.132;8.626;2023-03-01T15:15:38;11.17;;;7.00;;
10643;SDS011;5370;50.132;8.626;2023-03-01T15:20:40;8.53;;;6.40;;
10643;SDS011;5370;50.132;8.626;2023-03-01T15:23:06;4.70;;;3.83;;
10643;SDS011;5370;50.132;8.626;2023-03-01T15:25:47;10.00;;;5.93;;
10643;SDS011;5370;50.132;8.626;2023-03-01T15:28:21;9.13;;;6.40;;
10643;SDS011;5370;50.132;8.626;2023-03-01T15:30:53;8.90;;;6.43;;
10643;SDS011;5370;50.132;8.626;2023-03-01T15:35:52;10.17;;;6.13;;
10643;SDS011;5370;50.132;8.626;2023-03-01T15:38:32;11.33;;;6.63;;
10643;SDS011;5370;50.132;8.626;2023-03-01T15:41:01;9.30;;;5.63;;
10643;SDS011;5370;50.132;8.626;2023-03-01T15:43:43;11.63;;;7.13;;
10643;SDS011;5370;50.132;8.626;2023-03-01T15:46:17;7.13;;;5.37;;
10643;SDS011;5370;50.132;8.626;2023-03-01T15:48:47;10.67;;;5.40;;
10643;SDS011;5370;50.132;8.626;2023-03-01T15:51:17;8.20;;;6.20;;
10643;SDS011;5370;50.132;8.626;2023-03-01T15:53:46;9.07;;;5.90;;
10643;SDS011;5370;50.132;8.626;2023-03-01T15:56:17;12.57;;;6.87;;
10643;SDS011;5370;50.132;8.626;2023-03-01T15:58:42;9.30;;;5.53;;
10643;SDS011;5370;50.132;8.626;2023-03-01T16:01:10;8.03;;;5.73;;
10643;SDS011;5370;50.132;8.626;2023-03-01T16:03:39;9.60;;;6.73;;
10643;SDS011;5370;50.132;8.626;2023-03-01T16:06:05;10.20;;;6.20;;
10643;SDS011;5370;50.132;8.626;2023-03-01T16:08:30;10.97;;;7.23;;
10643;SDS011;5370;50.132;8.626;2023-03-01T16:10:56;7.30;;;5.13;;
10643;SDS011;5370;50.132;8.626;2023-03-01T16:13:21;11.93;;;6.60;;
10643;SDS011;5370;50.132;8.626;2023-03-01T16:15:47;9.67;;;7.00;;
10643;SDS011;5370;50.132;8.626;2023-03-01T16:18:13;11.10;;;6.30;;
10643;SDS011;5370;50.132;8.626;2023-03-01T16:20:39;12.50;;;5.60;;
10643;SDS011;5370;50.132;8.626;2023-03-01T16:23:06;10.67;;;6.20;;
10643;SDS011;5370;50.132;8.626;2023-03-01T16:25:33;8.57;;;5.40;;
10643;SDS011;5370;50.132;8.626;2023-03-01T16:27:59;9.50;;;5.33;;
10643;SDS011;5370;50.132;8.626;2023-03-01T16:30:29;11.80;;;7.60;;
10643;SDS011;5370;50.132;8.626;2023-03-01T16:32:55;10.63;;;7.13;;
10643;SDS011;5370;50.132;8.626;2023-03-01T16:35:21;7.67;;;5.33;;
10643;SDS011;5370;50.132;8.626;2023-03-01T16:37:47;12.60;;;8.13;;
10643;SDS011;5370;50.132;8.626;2023-03-01T16:40:17;9.63;;;7.57;;
10643;SDS011;5370;50.132;8.626;2023-03-01T16:42:47;12.00;;;7.60;;
10643;SDS011;5370;50.132;8.626;2023-03-01T16:45:13;10.97;;;6.13;;
10643;SDS011;5370;50.132;8.626;2023-03-01T16:47:39;9.57;;;6.40;;
10643;SDS011;5370;50.132;8.626;2023-03-01T16:50:04;7.63;;;4.80;;
10643;SDS011;5370;50.132;8.626;2023-03-01T16:52:30;9.70;;;6.77;;
10643;SDS011;5370;50.132;8.626;2023-03-01T16:54:56;10.90;;;7.37;;
10643;SDS011;5370;50.132;8.626;2023-03-01T16:57:22;9.57;;;6.97;;
10643;SDS011;5370;50.132;8.626;2023-03-01T16:59:47;11.27;;;6.90;;